Atoka, TN

5:30 AM CST on February 01, 2015 (GMT -0600)
Olive Branch | Change Station
CLOSE
Current Station
Airport
Location: Olive Branch,
Elevation: 400 ft
Nearby Weather Stations

Elev 400 ft 34.98 °N, 89.79 °W | Updated 15 minutes ago

Overcast
Overcast
46 °F
Feels Like 40 °F
N
16
Wind Variable Wind from South
Gusts 21 mph

Today
High -- | Low -- °F
--% Chance of Precip.
Yesterday
High -- | Low -- °F
Precip. -- in
6:58 AM 5:27 PM
Waxing Gibbous, 94% visible
Pressure 29.93 in
Visibility 8.0 miles
Clouds Few 3300 ft
Mostly Cloudy 4500 ft
Overcast 8000 ft
Windchill 40 °F
Dew Point 43 °F
Humidity 87%
Rainfall 0.00 in
Snow Depth Not available.
UV 0 out of 12
Pollen 2.40 out of 12
Air Quality Not available.
Flu Activity Not available.
METAR KOLV 011115Z AUTO 17014G18KT 8SM FEW033 BKN045 OVC080 08/06 A2993 RMK A01 P000

More Conditions Fewer Conditions

Pressure 29.93 in
Visibility 8.0 miles
Clouds Few 3300 ft
Mostly Cloudy 4500 ft
Overcast 8000 ft
Windchill 40 °F
Dew Point 43 °F
Humidity 87%
Rainfall 0.00 in
Snow Depth Not available.
UV 0 out of 12
Pollen 2.40 out of 12
Air Quality Not available.
Flu Activity Not available.
METAR KOLV 011115Z AUTO 17014G18KT 8SM FEW033 BKN045 OVC080 08/06 A2993 RMK A01 P000

More Conditions Fewer Conditions

10-Day Weather Forecast

Almanac

Astronomy

Feb. 01, 2015 Rise Set
Actual Time
Civil Twilight
Nautical Twilight
Astronomical Twilight
Moon
Length of Visible Light
Length of Day
Tomorrow will be .
, % of the Moon is Illuminated

Today's Extremes

State Highs State Lows

Community

WunderPhotos

Upload Photos

1,792,345 photos uploaded!

WunderBlogs® & News

Nearby

Air Quality

  Air Quality AQ Index Pollutant
Not available.

Snow Depth

Station Depth Elevation

Earthquake Activity

City Distance Mag. Time & Date
Minimum magnitude displayed is 2.5.

Coastal Water Temperatures

Place Temperature

Nearby Weather Stations